createdAt,value
2023-02-26T00:00:58.061Z,83.37
2023-02-26T00:01:58.087Z,83.27
2023-02-26T00:02:58.044Z,83.03
2023-02-26T00:03:58.043Z,83.23
2023-02-26T00:04:57.982Z,82.92
2023-02-26T00:05:57.979Z,82.54
2023-02-26T00:06:59.570Z,82.86
2023-02-26T00:07:57.978Z,82.75
2023-02-26T00:08:57.943Z,82.44
2023-02-26T00:09:57.960Z,82.54
2023-02-26T00:10:57.938Z,82.34
2023-02-26T00:11:57.907Z,82.30
2023-02-26T00:12:57.918Z,82.34
2023-02-26T00:13:57.897Z,82.23
2023-02-26T00:14:57.878Z,82.34
2023-02-26T00:15:57.884Z,82.34
2023-02-26T00:16:57.898Z,82.54
2023-02-26T00:17:57.968Z,82.44
2023-02-26T00:18:57.853Z,82.23
2023-02-26T00:19:57.833Z,82.44
2023-02-26T00:20:57.814Z,82.44
2023-02-26T00:21:57.801Z,82.44
2023-02-26T00:22:57.838Z,82.23
2023-02-26T00:23:57.789Z,82.03
2023-02-26T00:24:57.770Z,81.81
2023-02-26T00:25:57.785Z,82.03
2023-02-26T00:26:57.748Z,81.60
2023-02-26T00:27:57.758Z,81.92
2023-02-26T00:28:57.724Z,81.81
2023-02-26T00:29:57.720Z,81.71
2023-02-26T00:30:57.803Z,81.60
2023-02-26T00:31:57.777Z,81.92
2023-02-26T00:32:57.724Z,81.71
2023-02-26T00:33:57.686Z,81.50
2023-02-26T00:34:57.660Z,81.60
2023-02-26T00:35:57.652Z,81.71
2023-02-26T00:36:57.637Z,81.81
2023-02-26T00:37:57.650Z,81.71
2023-02-26T00:38:57.618Z,81.81
2023-02-26T00:39:57.605Z,81.60
2023-02-26T00:40:57.602Z,81.71
2023-02-26T00:41:57.606Z,81.81
2023-02-26T00:42:57.627Z,82.03
2023-02-26T00:43:57.569Z,81.81
2023-02-26T00:44:57.552Z,81.81
2023-02-26T00:45:57.584Z,82.03
2023-02-26T00:46:57.535Z,81.92
2023-02-26T00:47:57.535Z,81.81
2023-02-26T00:48:57.508Z,81.71
2023-02-26T00:49:57.505Z,81.60
2023-02-26T00:50:57.564Z,81.92
2023-02-26T00:51:57.488Z,82.03
2023-02-26T00:52:57.493Z,82.13
2023-02-26T00:53:57.476Z,81.81
2023-02-26T00:54:57.449Z,81.92
2023-02-26T00:55:57.439Z,81.81
2023-02-26T00:56:57.426Z,81.92
2023-02-26T00:57:57.464Z,81.71
2023-02-26T00:58:57.426Z,81.81
2023-02-26T00:59:57.395Z,81.71
2023-02-26T01:00:57.419Z,81.50
2023-02-26T01:01:57.377Z,81.81
2023-02-26T01:02:57.367Z,81.81
2023-02-26T01:03:57.436Z,81.60
2023-02-26T01:04:57.342Z,81.81
2023-02-26T01:05:57.331Z,81.40
2023-02-26T01:06:57.314Z,81.19
2023-02-26T01:07:57.311Z,81.09
2023-02-26T01:08:57.304Z,81.29
2023-02-26T01:09:57.293Z,81.36
2023-02-26T01:10:57.272Z,81.26
2023-02-26T01:11:57.266Z,81.26
2023-02-26T01:12:57.247Z,81.36
2023-02-26T01:13:57.280Z,81.15
2023-02-26T01:14:57.227Z,81.15
2023-02-26T01:15:57.246Z,81.36
2023-02-26T01:16:57.204Z,81.15
2023-02-26T01:17:57.203Z,80.74
2023-02-26T01:18:57.217Z,80.43
2023-02-26T01:19:57.175Z,81.26
2023-02-26T01:20:57.159Z,80.53
2023-02-26T01:21:57.199Z,80.63
2023-02-26T01:22:57.144Z,80.84
2023-02-26T01:23:57.157Z,80.63
2023-02-26T01:24:57.116Z,80.63
2023-02-26T01:25:57.115Z,80.74
2023-02-26T01:26:57.114Z,80.74
2023-02-26T01:27:57.089Z,80.84
2023-02-26T01:28:57.082Z,80.32
2023-02-26T01:29:57.090Z,80.53
2023-02-26T01:30:57.180Z,80.74
2023-02-26T01:31:57.230Z,80.11
2023-02-26T01:32:57.034Z,80.53
2023-02-26T01:33:57.047Z,80.32
2023-02-26T01:34:57.009Z,80.43
2023-02-26T01:35:57.003Z,80.01
2023-02-26T01:36:57.013Z,80.22
2023-02-26T01:37:56.993Z,79.91
2023-02-26T01:38:56.967Z,80.01
2023-02-26T01:39:56.980Z,80.22
2023-02-26T01:40:56.950Z,80.11
2023-02-26T01:41:56.957Z,79.91
2023-02-26T01:42:56.929Z,80.43
2023-02-26T01:43:56.930Z,80.01
2023-02-26T01:44:56.912Z,79.69
2023-02-26T01:45:56.921Z,79.69
2023-02-26T01:46:56.956Z,80.11
2023-02-26T01:47:56.884Z,80.22
2023-02-26T01:48:56.906Z,80.22
2023-02-26T01:49:56.883Z,80.11
2023-02-26T01:50:56.843Z,80.11
2023-02-26T01:51:56.832Z,80.22
2023-02-26T01:52:56.825Z,80.11
2023-02-26T01:53:56.832Z,80.01
2023-02-26T01:54:56.810Z,80.01
2023-02-26T01:55:56.796Z,80.11
2023-02-26T01:56:56.806Z,80.11
2023-02-26T01:57:56.771Z,80.08
2023-02-26T01:58:56.788Z,79.69
2023-02-26T01:59:56.762Z,79.17
2023-02-26T02:00:56.738Z,79.38
2023-02-26T02:01:56.779Z,78.97
2023-02-26T02:02:56.886Z,78.97
2023-02-26T02:03:56.741Z,78.86
2023-02-26T02:04:56.691Z,78.66
2023-02-26T02:05:56.682Z,78.55
2023-02-26T02:06:56.678Z,78.76
2023-02-26T02:07:56.673Z,79.07
2023-02-26T02:08:56.679Z,78.86
2023-02-26T02:09:56.670Z,78.83
2023-02-26T02:10:56.708Z,79.38
2023-02-26T02:11:56.637Z,79.69
2023-02-26T02:12:56.633Z,79.49
2023-02-26T02:13:56.635Z,79.76
2023-02-26T02:14:56.598Z,79.45
2023-02-26T02:15:56.647Z,79.38
2023-02-26T02:16:56.598Z,79.49
2023-02-26T02:17:56.600Z,79.14
2023-02-26T02:18:56.568Z,78.86
2023-02-26T02:19:56.535Z,79.07
2023-02-26T02:20:56.540Z,78.97
2023-02-26T02:21:56.530Z,79.24
2023-02-26T02:22:56.499Z,79.38
2023-02-26T02:23:56.523Z,79.03
2023-02-26T02:24:56.473Z,78.83
2023-02-26T02:25:56.470Z,78.41
2023-02-26T02:26:56.448Z,78.62
2023-02-26T02:27:56.440Z,78.45
2023-02-26T02:28:56.467Z,78.62
2023-02-26T02:29:56.419Z,78.72
2023-02-26T02:30:56.446Z,78.31
2023-02-26T02:31:56.577Z,78.45
2023-02-26T02:32:56.469Z,78.20
2023-02-26T02:33:56.440Z,78.31
2023-02-26T02:34:56.377Z,78.20
2023-02-26T02:35:56.360Z,78.31
2023-02-26T02:36:56.348Z,78.41
2023-02-26T02:37:56.336Z,78.24
2023-02-26T02:38:56.383Z,78.00
2023-02-26T02:39:56.316Z,78.41
2023-02-26T02:40:56.298Z,78.52
2023-02-26T02:41:56.289Z,78.00
2023-02-26T02:42:56.315Z,78.52
2023-02-26T02:43:56.326Z,78.62
2023-02-26T02:44:56.288Z,78.45
2023-02-26T02:45:56.302Z,78.62
2023-02-26T02:46:56.336Z,78.76
2023-02-26T02:47:56.224Z,78.66
2023-02-26T02:48:56.233Z,78.34
2023-02-26T02:49:56.218Z,78.45
2023-02-26T02:50:56.205Z,78.55
2023-02-26T02:51:56.185Z,78.76
2023-02-26T02:52:56.166Z,78.55
2023-02-26T02:53:56.211Z,78.66
2023-02-26T02:54:56.174Z,78.45
2023-02-26T02:55:56.145Z,78.55
2023-02-26T02:56:56.134Z,78.76
2023-02-26T02:57:56.118Z,78.55
2023-02-26T02:58:56.141Z,78.03
2023-02-26T02:59:56.099Z,78.24
2023-02-26T03:00:56.129Z,78.03
2023-02-26T03:01:56.112Z,78.03
2023-02-26T03:02:56.098Z,77.72
2023-02-26T03:03:56.077Z,78.14
2023-02-26T03:04:56.042Z,77.93
2023-02-26T03:05:56.053Z,78.14
2023-02-26T03:06:56.019Z,78.24
2023-02-26T03:07:56.007Z,78.45
2023-02-26T03:08:56.034Z,78.24
2023-02-26T03:09:55.993Z,78.55
2023-02-26T03:10:55.987Z,78.45
2023-02-26T03:11:55.971Z,78.66
2023-02-26T03:12:55.959Z,78.34
2023-02-26T03:13:55.965Z,77.93
2023-02-26T03:14:55.947Z,78.34
2023-02-26T03:15:55.930Z,78.45
2023-02-26T03:16:55.922Z,78.55
2023-02-26T03:17:55.909Z,78.66
2023-02-26T03:18:55.926Z,78.24
2023-02-26T03:19:55.891Z,78.14
2023-02-26T03:20:55.882Z,78.14
2023-02-26T03:21:55.883Z,78.24
2023-02-26T03:22:55.855Z,78.69
2023-02-26T03:23:55.857Z,78.66
2023-02-26T03:24:55.833Z,78.45
2023-02-26T03:25:55.820Z,78.59
2023-02-26T03:26:55.818Z,78.24
2023-02-26T03:27:55.801Z,78.45
2023-02-26T03:28:55.808Z,78.76
2023-02-26T03:29:55.782Z,78.34
2023-02-26T03:30:55.799Z,78.55
2023-02-26T03:31:55.882Z,78.34
2023-02-26T03:32:55.765Z,78.17
2023-02-26T03:33:55.761Z,78.34
2023-02-26T03:34:55.730Z,78.49
2023-02-26T03:35:55.726Z,78.69
2023-02-26T03:36:55.711Z,78.69
2023-02-26T03:37:55.714Z,78.55
2023-02-26T03:38:55.730Z,78.45
2023-02-26T03:39:55.669Z,78.49
2023-02-26T03:40:55.666Z,78.24
2023-02-26T03:41:55.648Z,78.45
2023-02-26T03:42:55.649Z,78.66
2023-02-26T03:43:55.649Z,78.45
2023-02-26T03:44:55.640Z,78.07
2023-02-26T03:45:55.610Z,77.93
2023-02-26T03:46:55.603Z,77.72
2023-02-26T03:47:55.590Z,77.61
2023-02-26T03:48:55.661Z,78.03
2023-02-26T03:49:55.572Z,78.03
2023-02-26T03:50:55.561Z,78.45
2023-02-26T03:51:55.545Z,78.28
2023-02-26T03:52:55.548Z,78.59
2023-02-26T03:53:55.560Z,78.34
2023-02-26T03:54:56.262Z,78.03
2023-02-26T03:55:55.498Z,78.34
2023-02-26T03:56:55.535Z,78.55
2023-02-26T03:57:55.501Z,78.07
2023-02-26T03:58:55.516Z,78.45
2023-02-26T03:59:55.461Z,78.59
2023-02-26T04:00:55.449Z,78.49
2023-02-26T04:01:55.641Z,79.00
2023-02-26T04:02:55.440Z,78.59
2023-02-26T04:03:55.467Z,78.69
2023-02-26T04:04:55.407Z,78.55
2023-02-26T04:05:55.391Z,78.03
2023-02-26T04:06:55.401Z,78.03
2023-02-26T04:07:55.376Z,78.14
2023-02-26T04:08:55.398Z,78.97
2023-02-26T04:09:55.366Z,78.66
2023-02-26T04:10:55.343Z,78.24
2023-02-26T04:11:55.326Z,78.45
2023-02-26T04:12:55.318Z,78.55
2023-02-26T04:13:55.328Z,78.45
2023-02-26T04:14:55.291Z,78.76
2023-02-26T04:15:55.286Z,78.34
2023-02-26T04:16:55.306Z,78.45
2023-02-26T04:17:55.260Z,78.45
2023-02-26T04:18:55.253Z,78.76
2023-02-26T04:19:55.274Z,78.24
2023-02-26T04:20:55.245Z,78.55
2023-02-26T04:21:55.215Z,78.55
2023-02-26T04:22:55.237Z,78.66
2023-02-26T04:23:55.194Z,78.34
2023-02-26T04:24:55.230Z,77.93
2023-02-26T04:25:55.196Z,78.03
2023-02-26T04:27:02.916Z,78.03
2023-02-26T04:27:55.148Z,78.55
2023-02-26T04:28:55.159Z,78.52
2023-02-26T04:29:55.124Z,78.00
2023-02-26T04:30:55.267Z,77.79
2023-02-26T04:31:55.310Z,77.37
2023-02-26T04:32:55.091Z,77.69
2023-02-26T04:33:55.103Z,77.69
2023-02-26T04:34:55.098Z,77.72
2023-02-26T04:35:55.057Z,77.69
2023-02-26T04:36:55.052Z,77.37
2023-02-26T04:37:55.040Z,77.06
2023-02-26T04:38:55.031Z,76.78
2023-02-26T04:39:55.037Z,76.89
2023-02-26T04:40:55.004Z,77.30
2023-02-26T04:41:55.014Z,77.83
2023-02-26T04:42:55.097Z,77.51
2023-02-26T04:43:54.979Z,77.83
2023-02-26T04:44:54.979Z,77.40
2023-02-26T04:45:54.969Z,77.30
2023-02-26T04:46:54.943Z,77.40
2023-02-26T04:47:54.993Z,77.40
2023-02-26T04:48:54.925Z,77.30
2023-02-26T04:49:54.922Z,77.51
2023-02-26T04:50:54.908Z,77.20
2023-02-26T04:51:54.933Z,77.20
2023-02-26T04:52:54.891Z,77.09
2023-02-26T04:53:54.873Z,77.20
2023-02-26T04:54:54.867Z,76.89
2023-02-26T04:55:54.842Z,76.78
2023-02-26T04:56:54.838Z,76.78
2023-02-26T04:57:54.834Z,77.20
2023-02-26T04:58:54.817Z,76.57
2023-02-26T04:59:54.811Z,76.57
2023-02-26T05:00:54.843Z,76.89
2023-02-26T05:01:54.817Z,76.51
2023-02-26T05:02:54.776Z,76.57
2023-02-26T05:03:54.751Z,76.72
2023-02-26T05:04:54.768Z,76.68
2023-02-26T05:05:54.741Z,76.68
2023-02-26T05:06:54.736Z,76.68
2023-02-26T05:07:54.717Z,76.89
2023-02-26T05:08:54.708Z,76.57
2023-02-26T05:09:54.709Z,76.26
2023-02-26T05:10:54.688Z,76.16
2023-02-26T05:11:54.672Z,76.06
2023-02-26T05:12:54.661Z,76.26
2023-02-26T05:13:54.670Z,76.26
2023-02-26T05:14:54.697Z,76.37
2023-02-26T05:15:54.665Z,76.16
2023-02-26T05:16:54.617Z,76.06
2023-02-26T05:17:54.603Z,76.37
2023-02-26T05:18:54.598Z,76.26
2023-02-26T05:19:54.596Z,76.37
2023-02-26T05:20:54.570Z,76.78
2023-02-26T05:21:54.574Z,76.68
2023-02-26T05:22:54.552Z,76.26
2023-02-26T05:23:54.551Z,76.16
2023-02-26T05:24:54.549Z,75.85
2023-02-26T05:25:54.530Z,75.54
2023-02-26T05:26:54.520Z,75.32
2023-02-26T05:27:54.503Z,75.85
2023-02-26T05:28:54.494Z,75.74
2023-02-26T05:29:54.528Z,75.64
2023-02-26T05:30:54.620Z,75.74
2023-02-26T05:31:54.601Z,75.78
2023-02-26T05:32:54.444Z,75.78
2023-02-26T05:33:54.436Z,75.67
2023-02-26T05:34:54.445Z,75.54
2023-02-26T05:35:54.410Z,75.74
2023-02-26T05:36:54.397Z,75.43
2023-02-26T05:37:54.393Z,75.43
2023-02-26T05:38:54.388Z,75.54
2023-02-26T05:39:54.387Z,75.46
2023-02-26T05:40:54.364Z,75.32
2023-02-26T05:41:54.348Z,75.85
2023-02-26T05:42:54.334Z,75.22
2023-02-26T05:43:54.329Z,75.54
2023-02-26T05:44:54.351Z,75.54
2023-02-26T05:45:54.326Z,75.43
2023-02-26T05:46:54.359Z,75.22
2023-02-26T05:47:54.282Z,75.22
2023-02-26T05:48:54.272Z,75.12
2023-02-26T05:49:54.286Z,75.01
2023-02-26T05:50:54.249Z,74.91
2023-02-26T05:51:54.243Z,74.80
2023-02-26T05:52:54.236Z,74.29
2023-02-26T05:53:54.219Z,74.18
2023-02-26T05:54:54.225Z,74.49
2023-02-26T05:55:54.191Z,74.49
2023-02-26T05:56:54.182Z,74.49
2023-02-26T05:57:54.172Z,74.39
2023-02-26T05:58:54.179Z,74.18
2023-02-26T05:59:54.162Z,74.60
2023-02-26T06:00:54.154Z,74.49
2023-02-26T06:01:54.191Z,74.60
2023-02-26T06:02:54.164Z,74.80
2023-02-26T06:03:54.106Z,74.60
2023-02-26T06:04:54.112Z,74.60
2023-02-26T06:05:54.086Z,74.60
2023-02-26T06:06:54.077Z,74.60
2023-02-26T06:07:54.065Z,74.08
2023-02-26T06:08:54.054Z,74.18
2023-02-26T06:09:54.062Z,73.97
2023-02-26T06:10:54.032Z,73.56
2023-02-26T06:11:54.027Z,73.87
2023-02-26T06:12:54.006Z,74.39
2023-02-26T06:13:54.002Z,74.70
2023-02-26T06:14:54.000Z,74.80
2023-02-26T06:15:54.070Z,74.49
2023-02-26T06:16:53.968Z,74.88
2023-02-26T06:17:53.975Z,74.88
2023-02-26T06:18:53.946Z,74.88
2023-02-26T06:19:53.954Z,74.46
2023-02-26T06:20:53.923Z,74.46
2023-02-26T06:21:53.911Z,73.94
2023-02-26T06:22:53.901Z,74.04
2023-02-26T06:23:53.883Z,74.04
2023-02-26T06:24:53.891Z,73.94
2023-02-26T06:25:53.863Z,74.04
2023-02-26T06:26:53.854Z,74.15
2023-02-26T06:27:53.845Z,74.04
2023-02-26T06:28:53.836Z,74.04
2023-02-26T06:29:53.845Z,73.21
2023-02-26T06:30:53.897Z,73.83
2023-02-26T06:31:53.992Z,73.63
2023-02-26T06:32:53.791Z,74.04
2023-02-26T06:33:53.799Z,73.63
2023-02-26T06:34:53.859Z,73.73
2023-02-26T06:35:53.774Z,73.32
2023-02-26T06:36:53.755Z,72.86
2023-02-26T06:37:53.739Z,72.97
2023-02-26T06:38:53.741Z,72.76
2023-02-26T06:39:53.735Z,73.07
2023-02-26T06:40:53.714Z,73.07
2023-02-26T06:41:53.719Z,73.39
2023-02-26T06:42:53.688Z,73.80
2023-02-26T06:43:53.682Z,72.94
2023-02-26T06:44:53.681Z,72.52
2023-02-26T06:45:53.686Z,72.31
2023-02-26T06:46:53.647Z,72.00
2023-02-26T06:47:53.634Z,72.21
2023-02-26T06:48:53.633Z,72.21
2023-02-26T06:49:53.662Z,71.59
2023-02-26T06:50:53.605Z,71.76
2023-02-26T06:51:53.592Z,71.66
2023-02-26T06:52:53.581Z,70.87
2023-02-26T06:53:53.569Z,69.59
2023-02-26T06:54:53.590Z,69.01
2023-02-26T06:55:53.561Z,67.80
2023-02-26T06:56:53.541Z,67.15
2023-02-26T06:57:53.531Z,66.06
2023-02-26T06:58:53.518Z,64.45
2023-02-26T06:59:53.555Z,63.18
2023-02-26T07:00:53.605Z,61.26
2023-02-26T07:01:53.483Z,60.59
2023-02-26T07:02:53.476Z,59.50
2023-02-26T07:03:53.462Z,58.54
2023-02-26T07:04:53.461Z,57.70
2023-02-26T07:05:53.462Z,56.64
2023-02-26T07:06:53.428Z,56.41
2023-02-26T07:07:53.416Z,55.23
2023-02-26T07:08:53.443Z,54.59
2023-02-26T07:09:53.413Z,53.85
2023-02-26T07:10:53.382Z,53.92
2023-02-26T07:11:53.372Z,52.87
2023-02-26T07:12:53.368Z,52.36
2023-02-26T07:13:53.357Z,52.87
2023-02-26T07:14:53.350Z,52.18
2023-02-26T07:15:53.336Z,52.92
2023-02-26T07:16:53.396Z,52.33
2023-02-26T07:17:53.307Z,52.97
2023-02-26T07:18:53.301Z,53.81
2023-02-26T07:19:53.297Z,54.69
2023-02-26T07:20:53.281Z,54.90
2023-02-26T07:21:53.280Z,55.77
2023-02-26T07:22:53.260Z,57.44
2023-02-26T07:23:53.239Z,56.85
2023-02-26T07:24:53.248Z,57.73
2023-02-26T07:25:53.217Z,57.93
2023-02-26T07:26:53.219Z,59.41
2023-02-26T07:27:53.201Z,59.33
2023-02-26T07:28:53.183Z,59.74
2023-02-26T07:29:53.184Z,59.56
2023-02-26T07:30:53.236Z,59.56
2023-02-26T07:31:53.321Z,60.39
2023-02-26T07:32:53.279Z,61.11
2023-02-26T07:33:53.136Z,61.01
2023-02-26T07:34:53.169Z,60.80
2023-02-26T07:35:53.152Z,60.49
2023-02-26T07:36:53.274Z,59.88
2023-02-26T07:37:53.106Z,60.73
2023-02-26T07:38:53.071Z,60.73
2023-02-26T07:39:53.091Z,60.42
2023-02-26T07:40:53.050Z,61.76
2023-02-26T07:41:53.039Z,61.55
2023-02-26T07:42:53.028Z,61.52
2023-02-26T07:43:53.047Z,60.57
2023-02-26T07:44:53.053Z,60.21
2023-02-26T07:45:53.092Z,59.70
2023-02-26T07:46:52.989Z,57.70
2023-02-26T07:47:52.978Z,55.69
2023-02-26T07:48:52.962Z,54.95
2023-02-26T07:49:52.962Z,54.69
2023-02-26T07:50:52.984Z,52.92
2023-02-26T07:51:52.972Z,52.69
2023-02-26T07:52:52.918Z,52.54
2023-02-26T07:53:52.934Z,51.18
2023-02-26T07:54:52.893Z,50.85
2023-02-26T07:55:52.904Z,50.04
2023-02-26T07:56:52.874Z,50.32
2023-02-26T07:57:52.863Z,50.40
2023-02-26T07:58:52.847Z,49.48
2023-02-26T07:59:52.839Z,48.79
2023-02-26T08:00:52.836Z,49.60
2023-02-26T08:01:52.822Z,50.22
2023-02-26T08:02:52.836Z,49.07
2023-02-26T08:03:52.814Z,48.94
2023-02-26T08:04:52.785Z,47.88
2023-02-26T08:05:52.798Z,48.18
2023-02-26T08:06:52.777Z,47.55
2023-02-26T08:07:52.764Z,47.32
2023-02-26T08:08:52.748Z,46.41
2023-02-26T08:09:52.749Z,47.20
2023-02-26T08:10:52.741Z,45.57
2023-02-26T08:11:52.717Z,45.47
2023-02-26T08:12:52.698Z,45.16
2023-02-26T08:13:52.684Z,45.67
2023-02-26T08:14:52.672Z,45.65
2023-02-26T08:15:52.748Z,44.85
2023-02-26T08:16:52.649Z,44.63
2023-02-26T08:17:52.643Z,44.96
2023-02-26T08:18:52.645Z,44.45
2023-02-26T08:19:52.626Z,44.92
2023-02-26T08:20:52.635Z,44.92
2023-02-26T08:21:52.621Z,44.08
2023-02-26T08:22:52.592Z,44.28
2023-02-26T08:23:52.598Z,43.96
2023-02-26T08:24:52.565Z,43.65
2023-02-26T08:25:52.627Z,43.47
2023-02-26T08:26:52.548Z,44.28
2023-02-26T08:27:52.531Z,44.08
2023-02-26T08:28:52.545Z,44.12
2023-02-26T08:29:52.513Z,44.37
2023-02-26T08:30:52.570Z,44.49
2023-02-26T08:31:52.621Z,45.20
2023-02-26T08:32:52.484Z,45.10
2023-02-26T08:33:52.466Z,45.59
2023-02-26T08:34:52.498Z,45.08
2023-02-26T08:35:52.463Z,45.92
2023-02-26T08:36:52.437Z,45.79
2023-02-26T08:37:52.426Z,45.79
2023-02-26T08:38:52.415Z,45.06
2023-02-26T08:39:52.406Z,45.18
2023-02-26T08:40:52.398Z,44.87
2023-02-26T08:41:52.410Z,45.08
2023-02-26T08:42:52.369Z,46.33
2023-02-26T08:43:52.356Z,46.66
2023-02-26T08:44:52.344Z,46.57
2023-02-26T08:45:52.362Z,47.92
2023-02-26T08:46:52.351Z,47.72
2023-02-26T08:47:57.295Z,47.72
2023-02-26T08:48:53.301Z,46.70
2023-02-26T08:49:52.294Z,46.06
2023-02-26T08:50:52.306Z,46.70
2023-02-26T08:51:52.274Z,47.72
2023-02-26T08:52:52.261Z,48.23
2023-02-26T08:53:52.254Z,47.94
2023-02-26T08:54:52.241Z,48.35
2023-02-26T08:55:52.302Z,48.23
2023-02-26T08:56:52.255Z,47.72
2023-02-26T08:57:52.267Z,46.59
2023-02-26T08:58:52.235Z,47.33
2023-02-26T08:59:52.188Z,48.23
2023-02-26T09:00:52.212Z,47.60
2023-02-26T09:01:52.276Z,46.75
2023-02-26T09:02:52.207Z,46.14
2023-02-26T09:03:52.144Z,45.73
2023-02-26T09:04:52.130Z,45.96
2023-02-26T09:05:52.213Z,45.96
2023-02-26T09:06:52.109Z,45.55
2023-02-26T09:07:52.100Z,46.37
2023-02-26T09:08:52.086Z,46.80
2023-02-26T09:09:52.075Z,46.92
2023-02-26T09:10:52.092Z,47.76
2023-02-26T09:11:52.056Z,48.71
2023-02-26T09:12:52.042Z,48.32
2023-02-26T09:13:52.052Z,50.01
2023-02-26T09:14:52.023Z,49.29
2023-02-26T09:15:52.070Z,49.67
2023-02-26T09:16:51.997Z,48.96
2023-02-26T09:17:51.987Z,48.40
2023-02-26T09:18:51.979Z,48.46
2023-02-26T09:19:51.967Z,47.82
2023-02-26T09:20:52.328Z,47.90
2023-02-26T09:21:51.951Z,46.34
2023-02-26T09:22:51.940Z,45.63
2023-02-26T09:23:51.922Z,44.71
2023-02-26T09:24:51.934Z,44.79
2023-02-26T09:25:51.917Z,44.38
2023-02-26T09:26:51.889Z,44.16
2023-02-26T09:27:51.884Z,44.37
2023-02-26T09:28:51.863Z,44.26
2023-02-26T09:29:51.911Z,44.06
2023-02-26T09:30:51.926Z,44.06
2023-02-26T09:31:52.002Z,43.75
2023-02-26T09:32:51.932Z,43.47
2023-02-26T09:33:51.815Z,44.94
2023-02-26T09:34:51.798Z,43.94
2023-02-26T09:35:51.802Z,43.73
2023-02-26T09:36:51.778Z,44.06
2023-02-26T09:37:51.772Z,45.18
2023-02-26T09:38:51.766Z,45.92
2023-02-26T09:39:53.954Z,46.12
2023-02-26T09:40:51.745Z,46.31
2023-02-26T09:41:51.736Z,45.67
2023-02-26T09:42:51.716Z,44.53
2023-02-26T09:43:51.716Z,44.71
2023-02-26T09:44:51.689Z,43.67
2023-02-26T09:45:51.787Z,43.90
2023-02-26T09:46:51.668Z,45.25
2023-02-26T09:47:51.660Z,44.20
2023-02-26T09:48:51.654Z,43.96
2023-02-26T09:49:51.638Z,42.83
2023-02-26T09:50:51.666Z,43.10
2023-02-26T09:51:51.616Z,43.08
2023-02-26T09:52:51.602Z,42.45
2023-02-26T09:53:51.595Z,42.43
2023-02-26T09:54:51.583Z,42.51
2023-02-26T09:55:51.647Z,41.60
2023-02-26T09:56:51.564Z,42.04
2023-02-26T09:57:51.554Z,42.21
2023-02-26T09:58:51.542Z,42.77
2023-02-26T09:59:51.535Z,44.65
2023-02-26T10:00:51.536Z,44.29
2023-02-26T10:01:51.612Z,45.33
2023-02-26T10:02:51.504Z,46.27
2023-02-26T10:03:51.563Z,45.41
2023-02-26T10:04:51.478Z,46.35
2023-02-26T10:05:51.516Z,46.04
2023-02-26T10:06:51.486Z,46.03
2023-02-26T10:07:51.465Z,45.33
2023-02-26T10:08:51.450Z,46.17
2023-02-26T10:09:51.465Z,46.30
2023-02-26T10:10:51.441Z,46.09
2023-02-26T10:11:51.413Z,46.83
2023-02-26T10:12:51.437Z,47.26
2023-02-26T10:13:57.717Z,48.00
2023-02-26T10:14:52.376Z,47.46
2023-02-26T10:15:51.389Z,46.93
2023-02-26T10:16:51.419Z,48.00
2023-02-26T10:17:51.386Z,47.69
2023-02-26T10:18:51.351Z,48.02
2023-02-26T10:19:51.314Z,46.93
2023-02-26T10:20:51.398Z,46.04
2023-02-26T10:21:51.293Z,44.37
2023-02-26T10:22:51.289Z,44.22
2023-02-26T10:23:51.270Z,42.85
2023-02-26T10:24:51.270Z,42.33
2023-02-26T10:25:51.266Z,42.41
2023-02-26T10:26:51.262Z,42.39
2023-02-26T10:27:51.228Z,42.47
2023-02-26T10:28:51.214Z,42.14
2023-02-26T10:29:51.204Z,41.13
2023-02-26T10:30:51.241Z,41.00
2023-02-26T10:31:51.252Z,39.46
2023-02-26T10:32:51.239Z,41.09
2023-02-26T10:33:51.178Z,40.07
2023-02-26T10:34:51.210Z,39.97
2023-02-26T10:35:51.148Z,40.07
2023-02-26T10:36:51.129Z,39.95
2023-02-26T10:37:51.116Z,39.02
2023-02-26T10:38:51.140Z,38.51
2023-02-26T10:39:51.091Z,38.31
2023-02-26T10:40:51.100Z,38.93
2023-02-26T10:41:51.072Z,39.06
2023-02-26T10:42:51.064Z,38.85
2023-02-26T10:43:51.057Z,38.76
2023-02-26T10:44:51.050Z,40.03
2023-02-26T10:45:51.133Z,40.57
2023-02-26T10:46:51.019Z,40.81
2023-02-26T10:47:51.007Z,41.44
2023-02-26T10:48:50.995Z,42.10
2023-02-26T10:49:51.009Z,42.94
2023-02-26T10:50:51.041Z,44.18
2023-02-26T10:51:50.984Z,44.61
2023-02-26T10:52:50.950Z,45.45
2023-02-26T10:53:50.943Z,45.50
2023-02-26T10:54:50.933Z,45.93
2023-02-26T10:55:50.948Z,45.62
2023-02-26T10:56:50.987Z,46.38
2023-02-26T10:57:50.902Z,46.58
2023-02-26T10:58:50.887Z,46.17
2023-02-26T10:59:50.892Z,46.30
2023-02-26T11:00:50.877Z,45.89
2023-02-26T11:01:50.884Z,46.01
2023-02-26T11:02:50.843Z,45.95
2023-02-26T11:03:50.835Z,46.47
2023-02-26T11:04:59.275Z,46.26
2023-02-26T11:05:51.860Z,45.56
2023-02-26T11:06:50.821Z,47.11
2023-02-26T11:07:50.796Z,46.41
2023-02-26T11:08:50.784Z,47.02
2023-02-26T11:09:50.773Z,46.82
2023-02-26T11:10:50.767Z,47.85
2023-02-26T11:11:50.762Z,47.95
2023-02-26T11:12:50.740Z,48.38
2023-02-26T11:13:50.734Z,48.71
2023-02-26T11:14:50.718Z,48.51
2023-02-26T11:15:50.744Z,47.87
2023-02-26T11:16:50.720Z,48.49
2023-02-26T11:17:50.692Z,49.33
2023-02-26T11:18:50.681Z,49.54
2023-02-26T11:19:50.664Z,49.54
2023-02-26T11:20:50.672Z,49.13
2023-02-26T11:21:50.680Z,49.23
2023-02-26T11:22:50.647Z,49.17
2023-02-26T11:23:50.622Z,48.24
2023-02-26T11:24:50.617Z,47.42
2023-02-26T11:25:50.599Z,46.92
2023-02-26T11:26:50.590Z,46.62
2023-02-26T11:27:50.596Z,48.58
2023-02-26T11:28:50.572Z,48.06
2023-02-26T11:29:50.562Z,48.88
2023-02-26T11:30:50.651Z,49.61
2023-02-26T11:31:50.737Z,49.30
2023-02-26T11:32:50.540Z,49.61
2023-02-26T11:33:50.512Z,49.71
2023-02-26T11:34:50.509Z,49.40
2023-02-26T11:35:50.492Z,48.58
2023-02-26T11:36:50.495Z,48.68
2023-02-26T11:37:50.588Z,49.43
2023-02-26T11:38:50.459Z,49.22
2023-02-26T11:39:50.445Z,49.61
2023-02-26T11:40:50.435Z,49.01
2023-02-26T11:41:50.422Z,49.09
2023-02-26T11:42:50.458Z,49.51
2023-02-26T11:43:50.403Z,48.68
2023-02-26T11:44:50.390Z,48.27
2023-02-26T11:45:50.394Z,48.27
2023-02-26T11:46:50.419Z,47.96
2023-02-26T11:47:50.358Z,49.09
2023-02-26T11:48:50.349Z,49.51
2023-02-26T11:49:50.335Z,50.84
2023-02-26T11:50:50.334Z,51.05
2023-02-26T11:51:50.338Z,51.57
2023-02-26T11:52:50.308Z,51.15
2023-02-26T11:53:50.313Z,51.98
2023-02-26T11:54:50.282Z,52.70
2023-02-26T11:55:50.278Z,52.70
2023-02-26T11:56:50.295Z,51.98
2023-02-26T11:57:50.243Z,51.59
2023-02-26T11:58:50.234Z,51.49
2023-02-26T11:59:50.227Z,51.79
2023-02-26T12:00:50.212Z,51.18
2023-02-26T12:01:50.250Z,51.20
2023-02-26T12:02:50.248Z,51.70
2023-02-26T12:03:50.223Z,51.62
2023-02-26T12:04:50.171Z,50.17
2023-02-26T12:05:50.159Z,50.27
2023-02-26T12:06:50.160Z,50.27
2023-02-26T12:07:50.148Z,50.07
2023-02-26T12:08:50.156Z,49.55
2023-02-26T12:09:50.137Z,49.14
2023-02-26T12:10:50.107Z,49.14
2023-02-26T12:11:50.102Z,49.14
2023-02-26T12:12:50.078Z,49.44
2023-02-26T12:13:50.067Z,49.63
2023-02-26T12:14:50.065Z,49.11
2023-02-26T12:15:50.132Z,50.25
2023-02-26T12:16:50.049Z,50.97
2023-02-26T12:17:50.025Z,50.66
2023-02-26T12:18:50.054Z,50.89
2023-02-26T12:19:50.007Z,51.10
2023-02-26T12:20:49.997Z,50.68
2023-02-26T12:21:49.995Z,49.86
2023-02-26T12:22:49.984Z,49.26
2023-02-26T12:23:49.957Z,49.26
2023-02-26T12:24:49.946Z,50.40
2023-02-26T12:25:49.953Z,50.40
2023-02-26T12:26:49.940Z,51.02
2023-02-26T12:27:49.916Z,50.50
2023-02-26T12:28:49.905Z,51.02
2023-02-26T12:29:49.893Z,51.66
2023-02-26T12:30:49.921Z,52.91
2023-02-26T12:31:50.034Z,52.36
2023-02-26T12:32:49.864Z,51.76
2023-02-26T12:33:49.854Z,51.66
2023-02-26T12:34:49.849Z,51.25
2023-02-26T12:35:49.831Z,51.76
2023-02-26T12:36:50.019Z,50.73
2023-02-26T12:37:49.837Z,50.84
2023-02-26T12:38:49.801Z,50.81
2023-02-26T12:39:49.791Z,50.29
2023-02-26T12:40:49.779Z,50.60
2023-02-26T12:41:49.831Z,50.58
2023-02-26T12:42:49.761Z,50.48
2023-02-26T12:43:49.759Z,50.46
2023-02-26T12:44:49.740Z,49.73
2023-02-26T12:45:49.725Z,49.14
2023-02-26T12:46:49.812Z,49.04
2023-02-26T12:47:49.715Z,49.26
2023-02-26T12:48:51.404Z,48.85
2023-02-26T12:49:49.686Z,49.99
2023-02-26T12:50:49.691Z,49.04
2023-02-26T12:51:49.671Z,48.85
2023-02-26T12:52:49.655Z,49.37